sensor_id;sensor_type;location;lat;lon;timestamp;temperature;humidity
23231;DHT22;11784;49.818;8.632;2022-12-07T00:01:19;9.20;81.90
23231;DHT22;11784;49.818;8.632;2022-12-07T00:03:46;9.20;82.10
23231;DHT22;11784;49.818;8.632;2022-12-07T00:06:14;9.30;82.20
23231;DHT22;11784;49.818;8.632;2022-12-07T00:08:40;9.20;82.20
23231;DHT22;11784;49.818;8.632;2022-12-07T00:11:09;9.30;82.20
23231;DHT22;11784;49.818;8.632;2022-12-07T00:13:36;9.20;81.90
23231;DHT22;11784;49.818;8.632;2022-12-07T00:16:04;9.20;82.00
23231;DHT22;11784;49.818;8.632;2022-12-07T00:18:30;9.20;82.00
23231;DHT22;11784;49.818;8.632;2022-12-07T00:21:00;9.20;81.80
23231;DHT22;11784;49.818;8.632;2022-12-07T00:23:26;9.20;81.60
23231;DHT22;11784;49.818;8.632;2022-12-07T00:25:52;9.30;81.60
23231;DHT22;11784;49.818;8.632;2022-12-07T00:28:17;9.30;81.70
23231;DHT22;11784;49.818;8.632;2022-12-07T00:30:43;9.30;82.00
23231;DHT22;11784;49.818;8.632;2022-12-07T00:33:08;9.30;82.70
23231;DHT22;11784;49.818;8.632;2022-12-07T00:35:33;9.30;82.00
23231;DHT22;11784;49.818;8.632;2022-12-07T00:37:59;9.20;82.00
23231;DHT22;11784;49.818;8.632;2022-12-07T00:40:24;9.30;82.00
23231;DHT22;11784;49.818;8.632;2022-12-07T00:42:50;9.30;81.70
23231;DHT22;11784;49.818;8.632;2022-12-07T00:45:15;9.30;82.10
23231;DHT22;11784;49.818;8.632;2022-12-07T00:47:41;9.30;81.90
23231;DHT22;11784;49.818;8.632;2022-12-07T00:50:07;9.30;81.70
23231;DHT22;11784;49.818;8.632;2022-12-07T00:52:32;9.30;81.50
23231;DHT22;11784;49.818;8.632;2022-12-07T00:54:58;9.20;81.40
23231;DHT22;11784;49.818;8.632;2022-12-07T00:57:23;9.20;81.30
23231;DHT22;11784;49.818;8.632;2022-12-07T00:59:49;9.20;81.60
23231;DHT22;11784;49.818;8.632;2022-12-07T01:02:14;9.20;81.90
23231;DHT22;11784;49.818;8.632;2022-12-07T01:04:40;9.20;81.80
23231;DHT22;11784;49.818;8.632;2022-12-07T01:07:05;9.20;81.80
23231;DHT22;11784;49.818;8.632;2022-12-07T01:09:31;9.20;82.10
23231;DHT22;11784;49.818;8.632;2022-12-07T01:11:56;9.20;81.80
23231;DHT22;11784;49.818;8.632;2022-12-07T01:14:22;9.20;82.00
23231;DHT22;11784;49.818;8.632;2022-12-07T01:16:47;9.20;82.00
23231;DHT22;11784;49.818;8.632;2022-12-07T01:19:13;9.20;81.90
23231;DHT22;11784;49.818;8.632;2022-12-07T01:21:38;9.10;81.90
23231;DHT22;11784;49.818;8.632;2022-12-07T01:24:06;9.10;81.90
23231;DHT22;11784;49.818;8.632;2022-12-07T01:26:32;9.10;82.20
23231;DHT22;11784;49.818;8.632;2022-12-07T01:28:58;9.10;82.40
23231;DHT22;11784;49.818;8.632;2022-12-07T01:31:26;9.10;82.60
23231;DHT22;11784;49.818;8.632;2022-12-07T01:33:54;9.10;82.50
23231;DHT22;11784;49.818;8.632;2022-12-07T01:36:22;9.10;82.40
23231;DHT22;11784;49.818;8.632;2022-12-07T01:38:50;9.10;82.40
23231;DHT22;11784;49.818;8.632;2022-12-07T01:41:20;9.10;82.30
23231;DHT22;11784;49.818;8.632;2022-12-07T01:46:40;9.10;82.40
23231;DHT22;11784;49.818;8.632;2022-12-07T01:49:10;9.10;82.20
23231;DHT22;11784;49.818;8.632;2022-12-07T01:51:37;9.10;82.30
23231;DHT22;11784;49.818;8.632;2022-12-07T01:54:05;9.10;82.00
23231;DHT22;11784;49.818;8.632;2022-12-07T01:56:32;9.10;82.10
23231;DHT22;11784;49.818;8.632;2022-12-07T01:59:00;9.10;82.10
23231;DHT22;11784;49.818;8.632;2022-12-07T02:01:25;9.10;82.20
23231;DHT22;11784;49.818;8.632;2022-12-07T02:03:51;9.00;82.20
23231;DHT22;11784;49.818;8.632;2022-12-07T02:06:22;9.00;82.30
23231;DHT22;11784;49.818;8.632;2022-12-07T02:08:49;9.00;82.10
23231;DHT22;11784;49.818;8.632;2022-12-07T02:11:15;9.00;82.20
23231;DHT22;11784;49.818;8.632;2022-12-07T02:13:43;9.00;82.00
23231;DHT22;11784;49.818;8.632;2022-12-07T02:30:10;9.10;82.60
23231;DHT22;11784;49.818;8.632;2022-12-07T02:32:54;9.10;82.40
23231;DHT22;11784;49.818;8.632;2022-12-07T02:35:34;9.10;82.40
23231;DHT22;11784;49.818;8.632;2022-12-07T02:40:37;9.10;82.10
23231;DHT22;11784;49.818;8.632;2022-12-07T02:43:11;9.10;82.20
23231;DHT22;11784;49.818;8.632;2022-12-07T02:45:40;9.10;81.90
23231;DHT22;11784;49.818;8.632;2022-12-07T02:48:09;9.10;81.60
23231;DHT22;11784;49.818;8.632;2022-12-07T02:50:35;9.10;81.70
23231;DHT22;11784;49.818;8.632;2022-12-07T02:53:01;9.10;81.90
23231;DHT22;11784;49.818;8.632;2022-12-07T02:55:36;9.10;81.80
23231;DHT22;11784;49.818;8.632;2022-12-07T02:58:05;9.10;82.00
23231;DHT22;11784;49.818;8.632;2022-12-07T03:00:41;9.10;81.90
23231;DHT22;11784;49.818;8.632;2022-12-07T03:03:12;9.10;82.00
23231;DHT22;11784;49.818;8.632;2022-12-07T03:08:59;9.20;81.90
23231;DHT22;11784;49.818;8.632;2022-12-07T03:11:44;9.20;81.80
23231;DHT22;11784;49.818;8.632;2022-12-07T03:14:23;9.10;82.70
23231;DHT22;11784;49.818;8.632;2022-12-07T03:16:57;9.10;82.10
23231;DHT22;11784;49.818;8.632;2022-12-07T03:19:24;9.10;82.50
23231;DHT22;11784;49.818;8.632;2022-12-07T03:22:00;9.10;82.70
23231;DHT22;11784;49.818;8.632;2022-12-07T03:24:32;9.10;82.60
23231;DHT22;11784;49.818;8.632;2022-12-07T03:27:13;9.10;83.20
23231;DHT22;11784;49.818;8.632;2022-12-07T03:29:46;9.10;83.60
23231;DHT22;11784;49.818;8.632;2022-12-07T03:32:20;9.10;83.60
23231;DHT22;11784;49.818;8.632;2022-12-07T03:37:33;9.10;83.90
23231;DHT22;11784;49.818;8.632;2022-12-07T03:42:32;9.10;84.30
23231;DHT22;11784;49.818;8.632;2022-12-07T03:44:58;9.10;84.40
23231;DHT22;11784;49.818;8.632;2022-12-07T03:47:26;9.10;84.20
23231;DHT22;11784;49.818;8.632;2022-12-07T03:50:28;9.10;84.10
23231;DHT22;11784;49.818;8.632;2022-12-07T03:53:03;9.20;84.00
23231;DHT22;11784;49.818;8.632;2022-12-07T03:55:32;9.20;84.20
23231;DHT22;11784;49.818;8.632;2022-12-07T03:58:04;9.20;83.90
23231;DHT22;11784;49.818;8.632;2022-12-07T04:00:31;9.20;84.00
23231;DHT22;11784;49.818;8.632;2022-12-07T04:02:57;9.20;84.20
23231;DHT22;11784;49.818;8.632;2022-12-07T04:05:23;9.10;84.30
23231;DHT22;11784;49.818;8.632;2022-12-07T04:07:48;9.10;84.60
23231;DHT22;11784;49.818;8.632;2022-12-07T04:10:14;9.10;84.90
23231;DHT22;11784;49.818;8.632;2022-12-07T04:12:40;9.10;85.00
23231;DHT22;11784;49.818;8.632;2022-12-07T04:15:06;9.10;84.90
23231;DHT22;11784;49.818;8.632;2022-12-07T04:17:32;9.10;84.90
23231;DHT22;11784;49.818;8.632;2022-12-07T04:19:57;9.10;85.00
23231;DHT22;11784;49.818;8.632;2022-12-07T04:22:23;9.10;85.10
23231;DHT22;11784;49.818;8.632;2022-12-07T04:24:48;9.10;84.50
23231;DHT22;11784;49.818;8.632;2022-12-07T04:27:14;9.20;84.40
23231;DHT22;11784;49.818;8.632;2022-12-07T04:29:39;9.20;84.70
23231;DHT22;11784;49.818;8.632;2022-12-07T04:32:05;9.10;84.60
23231;DHT22;11784;49.818;8.632;2022-12-07T04:34:31;9.20;84.90
23231;DHT22;11784;49.818;8.632;2022-12-07T04:36:56;9.20;84.80
23231;DHT22;11784;49.818;8.632;2022-12-07T04:39:28;9.20;84.50
23231;DHT22;11784;49.818;8.632;2022-12-07T04:41:54;9.20;84.70
23231;DHT22;11784;49.818;8.632;2022-12-07T04:44:21;9.20;84.50
23231;DHT22;11784;49.818;8.632;2022-12-07T04:46:46;9.20;84.30
23231;DHT22;11784;49.818;8.632;2022-12-07T04:49:12;9.20;84.20
23231;DHT22;11784;49.818;8.632;2022-12-07T04:51:38;9.20;84.40
23231;DHT22;11784;49.818;8.632;2022-12-07T04:54:04;9.20;84.20
23231;DHT22;11784;49.818;8.632;2022-12-07T04:56:29;9.20;84.30
23231;DHT22;11784;49.818;8.632;2022-12-07T04:58:55;9.20;84.30
23231;DHT22;11784;49.818;8.632;2022-12-07T05:01:22;9.20;84.10
23231;DHT22;11784;49.818;8.632;2022-12-07T05:03:48;9.20;83.90
23231;DHT22;11784;49.818;8.632;2022-12-07T05:06:14;9.20;84.20
23231;DHT22;11784;49.818;8.632;2022-12-07T05:08:40;9.20;84.30
23231;DHT22;11784;49.818;8.632;2022-12-07T05:11:07;9.20;84.30
23231;DHT22;11784;49.818;8.632;2022-12-07T05:13:33;9.20;84.50
23231;DHT22;11784;49.818;8.632;2022-12-07T05:15:58;9.20;84.90
23231;DHT22;11784;49.818;8.632;2022-12-07T05:18:24;9.20;84.50
23231;DHT22;11784;49.818;8.632;2022-12-07T05:20:50;9.20;84.50
23231;DHT22;11784;49.818;8.632;2022-12-07T05:23:16;9.20;84.50
23231;DHT22;11784;49.818;8.632;2022-12-07T05:25:42;9.20;84.10
23231;DHT22;11784;49.818;8.632;2022-12-07T05:28:07;9.20;84.20
23231;DHT22;11784;49.818;8.632;2022-12-07T05:30:33;9.20;84.30
23231;DHT22;11784;49.818;8.632;2022-12-07T05:32:59;9.20;84.40
23231;DHT22;11784;49.818;8.632;2022-12-07T05:35:24;9.20;84.40
23231;DHT22;11784;49.818;8.632;2022-12-07T05:37:50;9.20;84.80
23231;DHT22;11784;49.818;8.632;2022-12-07T05:40:15;9.20;84.30
23231;DHT22;11784;49.818;8.632;2022-12-07T05:42:42;9.10;84.20
23231;DHT22;11784;49.818;8.632;2022-12-07T05:45:09;9.20;84.20
23231;DHT22;11784;49.818;8.632;2022-12-07T05:47:35;9.20;84.30
23231;DHT22;11784;49.818;8.632;2022-12-07T05:50:01;9.10;84.40
23231;DHT22;11784;49.818;8.632;2022-12-07T05:52:26;9.20;84.50
23231;DHT22;11784;49.818;8.632;2022-12-07T05:54:52;9.10;84.50
23231;DHT22;11784;49.818;8.632;2022-12-07T05:57:18;9.20;84.60
23231;DHT22;11784;49.818;8.632;2022-12-07T05:59:43;9.10;84.40
23231;DHT22;11784;49.818;8.632;2022-12-07T06:02:13;9.10;84.50
23231;DHT22;11784;49.818;8.632;2022-12-07T06:04:44;9.20;84.40
23231;DHT22;11784;49.818;8.632;2022-12-07T06:07:11;9.20;84.50
23231;DHT22;11784;49.818;8.632;2022-12-07T06:09:37;9.20;84.60
23231;DHT22;11784;49.818;8.632;2022-12-07T06:12:03;9.20;84.50
23231;DHT22;11784;49.818;8.632;2022-12-07T06:15:05;9.20;84.60
23231;DHT22;11784;49.818;8.632;2022-12-07T06:17:31;9.20;84.50
23231;DHT22;11784;49.818;8.632;2022-12-07T06:19:57;9.20;84.20
23231;DHT22;11784;49.818;8.632;2022-12-07T06:22:22;9.20;83.90
23231;DHT22;11784;49.818;8.632;2022-12-07T06:24:48;9.20;84.10
23231;DHT22;11784;49.818;8.632;2022-12-07T06:27:14;9.20;83.80
23231;DHT22;11784;49.818;8.632;2022-12-07T06:29:39;9.20;84.30
23231;DHT22;11784;49.818;8.632;2022-12-07T06:32:05;9.20;84.40
23231;DHT22;11784;49.818;8.632;2022-12-07T06:34:31;9.20;84.40
23231;DHT22;11784;49.818;8.632;2022-12-07T06:36:56;9.20;83.90
23231;DHT22;11784;49.818;8.632;2022-12-07T06:39:24;9.20;84.10
23231;DHT22;11784;49.818;8.632;2022-12-07T06:41:50;9.20;84.50
23231;DHT22;11784;49.818;8.632;2022-12-07T06:44:17;9.20;84.50
23231;DHT22;11784;49.818;8.632;2022-12-07T06:46:43;9.20;83.70
23231;DHT22;11784;49.818;8.632;2022-12-07T06:49:09;9.20;83.70
23231;DHT22;11784;49.818;8.632;2022-12-07T06:51:35;9.20;83.90
23231;DHT22;11784;49.818;8.632;2022-12-07T06:54:02;9.20;83.90
23231;DHT22;11784;49.818;8.632;2022-12-07T06:56:29;9.20;84.20
23231;DHT22;11784;49.818;8.632;2022-12-07T06:58:54;9.20;84.10
23231;DHT22;11784;49.818;8.632;2022-12-07T07:01:20;9.20;84.30
23231;DHT22;11784;49.818;8.632;2022-12-07T07:03:46;9.20;84.40
23231;DHT22;11784;49.818;8.632;2022-12-07T07:06:12;9.20;84.40
23231;DHT22;11784;49.818;8.632;2022-12-07T07:08:39;9.20;83.90
23231;DHT22;11784;49.818;8.632;2022-12-07T07:11:06;9.20;83.90
23231;DHT22;11784;49.818;8.632;2022-12-07T07:13:32;9.20;84.10
23231;DHT22;11784;49.818;8.632;2022-12-07T07:15:58;9.20;84.30
23231;DHT22;11784;49.818;8.632;2022-12-07T07:18:24;9.30;84.30
23231;DHT22;11784;49.818;8.632;2022-12-07T07:20:51;9.30;84.50
23231;DHT22;11784;49.818;8.632;2022-12-07T07:23:16;9.30;84.30
23231;DHT22;11784;49.818;8.632;2022-12-07T07:25:42;9.30;84.00
23231;DHT22;11784;49.818;8.632;2022-12-07T07:28:08;9.30;83.70
23231;DHT22;11784;49.818;8.632;2022-12-07T07:30:33;9.30;84.00
23231;DHT22;11784;49.818;8.632;2022-12-07T07:33:00;9.30;83.60
23231;DHT22;11784;49.818;8.632;2022-12-07T07:35:28;9.30;84.00
23231;DHT22;11784;49.818;8.632;2022-12-07T07:37:54;9.30;83.80
23231;DHT22;11784;49.818;8.632;2022-12-07T07:40:20;9.20;84.10
23231;DHT22;11784;49.818;8.632;2022-12-07T07:42:50;9.20;84.20
23231;DHT22;11784;49.818;8.632;2022-12-07T07:45:16;9.30;84.40
23231;DHT22;11784;49.818;8.632;2022-12-07T07:47:41;9.30;84.00
23231;DHT22;11784;49.818;8.632;2022-12-07T07:50:07;9.30;84.20
23231;DHT22;11784;49.818;8.632;2022-12-07T07:52:33;9.30;83.60
23231;DHT22;11784;49.818;8.632;2022-12-07T07:54:58;9.30;84.10
23231;DHT22;11784;49.818;8.632;2022-12-07T07:57:24;9.30;84.00
23231;DHT22;11784;49.818;8.632;2022-12-07T07:59:49;9.30;83.80
23231;DHT22;11784;49.818;8.632;2022-12-07T08:02:19;9.40;83.60
23231;DHT22;11784;49.818;8.632;2022-12-07T08:04:45;9.40;83.50
23231;DHT22;11784;49.818;8.632;2022-12-07T08:07:12;9.40;83.90
23231;DHT22;11784;49.818;8.632;2022-12-07T08:09:38;9.40;83.90
23231;DHT22;11784;49.818;8.632;2022-12-07T08:12:04;9.40;84.20
23231;DHT22;11784;49.818;8.632;2022-12-07T08:14:30;9.40;83.80
23231;DHT22;11784;49.818;8.632;2022-12-07T08:16:56;9.40;83.60
23231;DHT22;11784;49.818;8.632;2022-12-07T08:19:21;9.40;83.40
23231;DHT22;11784;49.818;8.632;2022-12-07T08:21:47;9.40;83.60
23231;DHT22;11784;49.818;8.632;2022-12-07T08:24:13;9.50;83.60
23231;DHT22;11784;49.818;8.632;2022-12-07T08:26:39;9.40;83.20
23231;DHT22;11784;49.818;8.632;2022-12-07T08:29:08;9.40;83.70
23231;DHT22;11784;49.818;8.632;2022-12-07T08:31:34;9.50;83.90
23231;DHT22;11784;49.818;8.632;2022-12-07T08:34:00;9.50;83.40
23231;DHT22;11784;49.818;8.632;2022-12-07T08:36:25;9.50;83.60
23231;DHT22;11784;49.818;8.632;2022-12-07T08:38:51;9.50;82.90
23231;DHT22;11784;49.818;8.632;2022-12-07T08:41:17;9.50;82.70
23231;DHT22;11784;49.818;8.632;2022-12-07T08:43:42;9.50;82.90
23231;DHT22;11784;49.818;8.632;2022-12-07T08:48:41;9.50;83.10
23231;DHT22;11784;49.818;8.632;2022-12-07T08:51:07;9.50;83.30
23231;DHT22;11784;49.818;8.632;2022-12-07T08:53:33;9.60;83.30
23231;DHT22;11784;49.818;8.632;2022-12-07T08:55:59;9.60;83.20
23231;DHT22;11784;49.818;8.632;2022-12-07T08:58:25;9.60;83.50
23231;DHT22;11784;49.818;8.632;2022-12-07T09:00:51;9.60;83.80
23231;DHT22;11784;49.818;8.632;2022-12-07T09:03:17;9.60;83.50
23231;DHT22;11784;49.818;8.632;2022-12-07T09:05:42;9.70;84.10
23231;DHT22;11784;49.818;8.632;2022-12-07T09:08:08;9.70;83.50
23231;DHT22;11784;49.818;8.632;2022-12-07T09:10:34;9.70;83.20
23231;DHT22;11784;49.818;8.632;2022-12-07T09:12:59;9.80;82.80
23231;DHT22;11784;49.818;8.632;2022-12-07T09:15:28;9.80;82.70
23231;DHT22;11784;49.818;8.632;2022-12-07T09:17:54;9.80;83.10
23231;DHT22;11784;49.818;8.632;2022-12-07T09:20:20;9.80;83.20
23231;DHT22;11784;49.818;8.632;2022-12-07T09:22:46;9.90;82.70
23231;DHT22;11784;49.818;8.632;2022-12-07T09:25:12;9.90;82.60
23231;DHT22;11784;49.818;8.632;2022-12-07T09:27:37;9.90;82.80
23231;DHT22;11784;49.818;8.632;2022-12-07T09:30:04;10.00;82.30
23231;DHT22;11784;49.818;8.632;2022-12-07T09:32:30;10.00;81.70
23231;DHT22;11784;49.818;8.632;2022-12-07T09:34:55;10.00;82.20
23231;DHT22;11784;49.818;8.632;2022-12-07T09:37:29;10.10;82.40
23231;DHT22;11784;49.818;8.632;2022-12-07T09:39:56;10.10;81.80
23231;DHT22;11784;49.818;8.632;2022-12-07T09:42:38;10.10;82.00
23231;DHT22;11784;49.818;8.632;2022-12-07T09:45:14;10.10;82.50
23231;DHT22;11784;49.818;8.632;2022-12-07T09:47:41;10.20;82.50
23231;DHT22;11784;49.818;8.632;2022-12-07T09:50:20;10.30;82.20
23231;DHT22;11784;49.818;8.632;2022-12-07T09:52:48;10.30;81.90
23231;DHT22;11784;49.818;8.632;2022-12-07T09:55:25;10.40;81.10
23231;DHT22;11784;49.818;8.632;2022-12-07T09:57:52;10.40;81.00
23231;DHT22;11784;49.818;8.632;2022-12-07T10:00:20;10.40;81.10
23231;DHT22;11784;49.818;8.632;2022-12-07T10:02:52;10.50;81.30
23231;DHT22;11784;49.818;8.632;2022-12-07T10:05:38;10.50;81.00
23231;DHT22;11784;49.818;8.632;2022-12-07T10:08:05;10.60;80.60
23231;DHT22;11784;49.818;8.632;2022-12-07T10:10:32;10.60;80.80
23231;DHT22;11784;49.818;8.632;2022-12-07T10:13:01;10.60;79.70
23231;DHT22;11784;49.818;8.632;2022-12-07T10:20:45;10.70;81.00
23231;DHT22;11784;49.818;8.632;2022-12-07T10:23:18;10.70;80.50
23231;DHT22;11784;49.818;8.632;2022-12-07T10:25:44;10.70;80.40
23231;DHT22;11784;49.818;8.632;2022-12-07T10:28:18;10.70;80.00
23231;DHT22;11784;49.818;8.632;2022-12-07T10:31:14;10.70;79.70
23231;DHT22;11784;49.818;8.632;2022-12-07T10:33:51;10.70;79.30
23231;DHT22;11784;49.818;8.632;2022-12-07T10:36:19;10.70;79.40
23231;DHT22;11784;49.818;8.632;2022-12-07T10:38:47;10.70;79.50
23231;DHT22;11784;49.818;8.632;2022-12-07T10:41:13;10.70;79.40
23231;DHT22;11784;49.818;8.632;2022-12-07T10:43:47;10.70;80.90
23231;DHT22;11784;49.818;8.632;2022-12-07T10:55:22;10.70;80.30
23231;DHT22;11784;49.818;8.632;2022-12-07T11:00:25;10.70;80.10
23231;DHT22;11784;49.818;8.632;2022-12-07T11:05:39;10.80;80.10
23231;DHT22;11784;49.818;8.632;2022-12-07T11:08:39;10.80;80.50
23231;DHT22;11784;49.818;8.632;2022-12-07T11:11:09;10.90;80.80
23231;DHT22;11784;49.818;8.632;2022-12-07T11:13:56;11.00;80.70
23231;DHT22;11784;49.818;8.632;2022-12-07T11:22:36;11.30;78.90
23231;DHT22;11784;49.818;8.632;2022-12-07T11:28:20;11.30;78.80
23231;DHT22;11784;49.818;8.632;2022-12-07T11:31:17;11.40;78.40
23231;DHT22;11784;49.818;8.632;2022-12-07T11:34:05;11.40;78.80
23231;DHT22;11784;49.818;8.632;2022-12-07T11:36:51;11.40;78.60
23231;DHT22;11784;49.818;8.632;2022-12-07T11:39:26;11.50;78.40
23231;DHT22;11784;49.818;8.632;2022-12-07T11:42:03;11.50;78.30
23231;DHT22;11784;49.818;8.632;2022-12-07T11:44:52;11.50;77.90
23231;DHT22;11784;49.818;8.632;2022-12-07T12:03:34;11.40;78.60
23231;DHT22;11784;49.818;8.632;2022-12-07T12:06:02;11.30;78.90
23231;DHT22;11784;49.818;8.632;2022-12-07T12:08:31;11.30;79.10
23231;DHT22;11784;49.818;8.632;2022-12-07T12:20:04;11.20;79.30
23231;DHT22;11784;49.818;8.632;2022-12-07T12:22:38;11.10;78.30
23231;DHT22;11784;49.818;8.632;2022-12-07T12:25:12;11.10;79.00
23231;DHT22;11784;49.818;8.632;2022-12-07T12:27:46;11.10;78.90
23231;DHT22;11784;49.818;8.632;2022-12-07T12:30:39;11.00;79.50
23231;DHT22;11784;49.818;8.632;2022-12-07T12:33:27;11.00;79.80
23231;DHT22;11784;49.818;8.632;2022-12-07T12:51:42;11.00;79.00
23231;DHT22;11784;49.818;8.632;2022-12-07T12:54:20;11.00;78.90
23231;DHT22;11784;49.818;8.632;2022-12-07T12:57:04;11.00;78.60
23231;DHT22;11784;49.818;8.632;2022-12-07T13:02:26;11.00;78.60
23231;DHT22;11784;49.818;8.632;2022-12-07T13:13:03;10.90;79.10
23231;DHT22;11784;49.818;8.632;2022-12-07T13:23:52;10.80;78.30
23231;DHT22;11784;49.818;8.632;2022-12-07T13:26:38;10.70;77.90
23231;DHT22;11784;49.818;8.632;2022-12-07T13:29:15;10.50;79.10
23231;DHT22;11784;49.818;8.632;2022-12-07T13:31:44;10.50;80.20
23231;DHT22;11784;49.818;8.632;2022-12-07T13:34:37;10.50;81.00
23231;DHT22;11784;49.818;8.632;2022-12-07T13:37:15;10.50;82.30
23231;DHT22;11784;49.818;8.632;2022-12-07T13:39:52;10.50;82.30
23231;DHT22;11784;49.818;8.632;2022-12-07T13:42:33;10.50;82.70
23231;DHT22;11784;49.818;8.632;2022-12-07T13:45:20;10.60;83.20
23231;DHT22;11784;49.818;8.632;2022-12-07T13:47:52;10.60;83.50
23231;DHT22;11784;49.818;8.632;2022-12-07T13:50:30;10.60;81.60
23231;DHT22;11784;49.818;8.632;2022-12-07T13:52:58;10.70;81.80
23231;DHT22;11784;49.818;8.632;2022-12-07T13:55:24;10.70;82.40
23231;DHT22;11784;49.818;8.632;2022-12-07T13:57:52;10.80;82.50
23231;DHT22;11784;49.818;8.632;2022-12-07T14:00:27;10.80;81.70
23231;DHT22;11784;49.818;8.632;2022-12-07T14:03:27;10.80;81.40
23231;DHT22;11784;49.818;8.632;2022-12-07T14:06:11;10.90;81.00
23231;DHT22;11784;49.818;8.632;2022-12-07T14:08:38;10.90;82.10
23231;DHT22;11784;49.818;8.632;2022-12-07T14:11:04;11.00;81.50
23231;DHT22;11784;49.818;8.632;2022-12-07T14:13:35;11.00;81.60
23231;DHT22;11784;49.818;8.632;2022-12-07T14:16:03;11.00;81.60
23231;DHT22;11784;49.818;8.632;2022-12-07T14:23:36;11.10;80.50
23231;DHT22;11784;49.818;8.632;2022-12-07T14:26:14;11.10;78.50
23231;DHT22;11784;49.818;8.632;2022-12-07T14:28:42;11.10;78.60
23231;DHT22;11784;49.818;8.632;2022-12-07T14:31:18;11.10;78.90
23231;DHT22;11784;49.818;8.632;2022-12-07T14:33:46;11.10;78.90
23231;DHT22;11784;49.818;8.632;2022-12-07T14:36:13;11.10;76.80
23231;DHT22;11784;49.818;8.632;2022-12-07T14:38:39;11.10;75.80
23231;DHT22;11784;49.818;8.632;2022-12-07T14:41:11;11.00;75.00
23231;DHT22;11784;49.818;8.632;2022-12-07T14:44:11;11.00;75.30
23231;DHT22;11784;49.818;8.632;2022-12-07T14:46:37;11.00;75.50
23231;DHT22;11784;49.818;8.632;2022-12-07T14:49:02;10.90;74.70
23231;DHT22;11784;49.818;8.632;2022-12-07T14:51:29;10.90;74.20
23231;DHT22;11784;49.818;8.632;2022-12-07T14:53:54;10.80;74.40
23231;DHT22;11784;49.818;8.632;2022-12-07T14:56:20;10.70;74.10
23231;DHT22;11784;49.818;8.632;2022-12-07T14:58:46;10.70;75.10
23231;DHT22;11784;49.818;8.632;2022-12-07T15:01:13;10.70;75.00
23231;DHT22;11784;49.818;8.632;2022-12-07T15:03:39;10.70;75.70
23231;DHT22;11784;49.818;8.632;2022-12-07T15:06:05;10.70;76.30
23231;DHT22;11784;49.818;8.632;2022-12-07T15:08:31;10.70;76.30
23231;DHT22;11784;49.818;8.632;2022-12-07T15:10:57;10.60;77.10
23231;DHT22;11784;49.818;8.632;2022-12-07T15:13:22;10.60;77.60
23231;DHT22;11784;49.818;8.632;2022-12-07T15:16:11;10.60;77.80
23231;DHT22;11784;49.818;8.632;2022-12-07T15:18:38;10.60;78.90
23231;DHT22;11784;49.818;8.632;2022-12-07T15:21:04;10.60;78.80
23231;DHT22;11784;49.818;8.632;2022-12-07T15:23:29;10.60;79.00
23231;DHT22;11784;49.818;8.632;2022-12-07T15:25:56;10.60;78.80
23231;DHT22;11784;49.818;8.632;2022-12-07T15:28:22;10.60;79.20
23231;DHT22;11784;49.818;8.632;2022-12-07T15:30:49;10.60;77.60
23231;DHT22;11784;49.818;8.632;2022-12-07T15:33:14;10.60;77.00
23231;DHT22;11784;49.818;8.632;2022-12-07T15:35:41;10.50;76.90
23231;DHT22;11784;49.818;8.632;2022-12-07T15:38:06;10.50;77.70
23231;DHT22;11784;49.818;8.632;2022-12-07T15:40:33;10.50;78.00
23231;DHT22;11784;49.818;8.632;2022-12-07T15:42:59;10.50;78.60
23231;DHT22;11784;49.818;8.632;2022-12-07T15:45:24;10.50;78.60
23231;DHT22;11784;49.818;8.632;2022-12-07T15:47:50;10.50;78.30
23231;DHT22;11784;49.818;8.632;2022-12-07T15:50:16;10.40;78.30
23231;DHT22;11784;49.818;8.632;2022-12-07T15:52:42;10.50;79.10
23231;DHT22;11784;49.818;8.632;2022-12-07T15:55:09;10.40;78.40
23231;DHT22;11784;49.818;8.632;2022-12-07T15:57:36;10.50;78.10
23231;DHT22;11784;49.818;8.632;2022-12-07T16:00:07;10.40;78.50
23231;DHT22;11784;49.818;8.632;2022-12-07T16:02:34;10.40;78.40
23231;DHT22;11784;49.818;8.632;2022-12-07T16:04:59;10.40;78.20
23231;DHT22;11784;49.818;8.632;2022-12-07T16:07:25;10.40;78.50
23231;DHT22;11784;49.818;8.632;2022-12-07T16:09:51;10.40;78.10
23231;DHT22;11784;49.818;8.632;2022-12-07T16:12:16;10.40;78.20
23231;DHT22;11784;49.818;8.632;2022-12-07T16:14:42;10.40;78.80
23231;DHT22;11784;49.818;8.632;2022-12-07T16:17:09;10.40;79.20
23231;DHT22;11784;49.818;8.632;2022-12-07T16:19:35;10.40;79.80
23231;DHT22;11784;49.818;8.632;2022-12-07T16:22:02;10.40;80.20
23231;DHT22;11784;49.818;8.632;2022-12-07T16:24:28;10.40;79.60
23231;DHT22;11784;49.818;8.632;2022-12-07T16:26:54;10.40;79.50
23231;DHT22;11784;49.818;8.632;2022-12-07T16:29:20;10.40;79.90
23231;DHT22;11784;49.818;8.632;2022-12-07T16:31:46;10.40;80.00
23231;DHT22;11784;49.818;8.632;2022-12-07T16:34:12;10.40;79.10
23231;DHT22;11784;49.818;8.632;2022-12-07T16:36:38;10.40;79.20
23231;DHT22;11784;49.818;8.632;2022-12-07T16:39:04;10.40;79.80
23231;DHT22;11784;49.818;8.632;2022-12-07T16:41:30;10.40;80.00
23231;DHT22;11784;49.818;8.632;2022-12-07T16:43:56;10.40;80.10
23231;DHT22;11784;49.818;8.632;2022-12-07T16:46:21;10.40;79.00
23231;DHT22;11784;49.818;8.632;2022-12-07T16:48:47;10.40;78.70
23231;DHT22;11784;49.818;8.632;2022-12-07T16:51:13;10.40;78.80
23231;DHT22;11784;49.818;8.632;2022-12-07T16:53:40;10.40;79.00
23231;DHT22;11784;49.818;8.632;2022-12-07T16:56:14;10.40;80.40
23231;DHT22;11784;49.818;8.632;2022-12-07T16:58:43;10.40;80.70
23231;DHT22;11784;49.818;8.632;2022-12-07T17:01:11;10.30;80.50
23231;DHT22;11784;49.818;8.632;2022-12-07T17:03:37;10.30;80.10
23231;DHT22;11784;49.818;8.632;2022-12-07T17:06:03;10.40;79.60
23231;DHT22;11784;49.818;8.632;2022-12-07T17:08:28;10.30;79.70
23231;DHT22;11784;49.818;8.632;2022-12-07T17:10:56;10.40;80.30
23231;DHT22;11784;49.818;8.632;2022-12-07T17:13:21;10.30;80.20
23231;DHT22;11784;49.818;8.632;2022-12-07T17:16:06;10.30;78.90
23231;DHT22;11784;49.818;8.632;2022-12-07T17:18:35;10.30;79.20
23231;DHT22;11784;49.818;8.632;2022-12-07T17:21:06;10.30;78.70
23231;DHT22;11784;49.818;8.632;2022-12-07T17:23:33;10.30;79.10
23231;DHT22;11784;49.818;8.632;2022-12-07T17:26:14;10.30;79.10
23231;DHT22;11784;49.818;8.632;2022-12-07T17:28:40;10.30;79.60
23231;DHT22;11784;49.818;8.632;2022-12-07T17:31:07;10.20;79.70
23231;DHT22;11784;49.818;8.632;2022-12-07T17:33:33;10.20;79.80
23231;DHT22;11784;49.818;8.632;2022-12-07T17:35:59;10.20;79.40
23231;DHT22;11784;49.818;8.632;2022-12-07T17:38:25;10.20;79.70
23231;DHT22;11784;49.818;8.632;2022-12-07T17:40:51;10.20;79.50
23231;DHT22;11784;49.818;8.632;2022-12-07T17:43:16;10.20;79.50
23231;DHT22;11784;49.818;8.632;2022-12-07T17:45:42;10.20;78.70
23231;DHT22;11784;49.818;8.632;2022-12-07T17:48:07;10.20;78.80
23231;DHT22;11784;49.818;8.632;2022-12-07T17:50:34;10.20;78.70
23231;DHT22;11784;49.818;8.632;2022-12-07T17:53:19;10.20;78.70
23231;DHT22;11784;49.818;8.632;2022-12-07T17:55:44;10.20;78.00